createdAt,value
2018-09-29T00:00:34.123Z,6.60
2018-09-29T00:03:05.551Z,6.10
2018-09-29T00:05:37.237Z,6.57
2018-09-29T00:08:08.416Z,6.07
2018-09-29T00:10:39.623Z,6.67
2018-09-29T00:13:10.851Z,6.67
2018-09-29T00:15:41.089Z,7.20
2018-09-29T00:18:11.533Z,6.00
2018-09-29T00:20:42.831Z,6.07
2018-09-29T00:23:13.913Z,6.47
2018-09-29T00:25:45.245Z,7.13
2018-09-29T00:28:17.352Z,6.90
2018-09-29T00:30:48.751Z,6.93
2018-09-29T00:33:19.505Z,7.17
2018-09-29T00:35:50.752Z,7.60
2018-09-29T00:38:22.114Z,7.50
2018-09-29T00:40:53.561Z,7.20
2018-09-29T00:43:25.613Z,8.00
2018-09-29T00:45:56.673Z,8.23
2018-09-29T00:48:28.133Z,7.33
2018-09-29T00:50:59.727Z,7.03
2018-09-29T00:53:31.246Z,8.17
2018-09-29T00:56:02.563Z,7.40
2018-09-29T00:58:33.742Z,7.73
2018-09-29T01:01:05.113Z,7.67
2018-09-29T01:03:37.038Z,7.70
2018-09-29T01:06:08.619Z,7.43
2018-09-29T01:08:39.840Z,6.87
2018-09-29T01:11:11.550Z,6.67
2018-09-29T01:13:42.649Z,8.03
2018-09-29T01:16:14.195Z,6.90
2018-09-29T01:18:45.749Z,6.60
2018-09-29T01:21:17.927Z,7.03
2018-09-29T01:23:49.046Z,7.23
2018-09-29T01:26:20.357Z,6.97
2018-09-29T01:28:51.892Z,6.60
2018-09-29T01:31:23.281Z,7.50
2018-09-29T01:33:54.398Z,7.57
2018-09-29T01:36:26.218Z,7.20
2018-09-29T01:38:57.540Z,7.10
2018-09-29T01:41:28.140Z,7.20
2018-09-29T01:43:59.742Z,6.60
2018-09-29T01:46:31.553Z,7.33
2018-09-29T01:49:03.147Z,7.37
2018-09-29T01:51:34.874Z,7.20
2018-09-29T01:54:06.372Z,7.77
2018-09-29T01:56:37.397Z,7.53
2018-09-29T01:59:09.216Z,7.77
2018-09-29T02:01:40.800Z,7.30
2018-09-29T02:04:11.916Z,8.00
2018-09-29T02:06:42.974Z,7.50
2018-09-29T02:09:14.564Z,7.57
2018-09-29T02:11:45.788Z,8.50
2018-09-29T02:14:17.197Z,8.00
2018-09-29T02:16:48.445Z,8.37
2018-09-29T02:19:19.126Z,8.57
2018-09-29T02:21:51.316Z,8.63
2018-09-29T02:24:22.000Z,8.43
2018-09-29T02:26:53.013Z,8.33
2018-09-29T02:29:24.717Z,8.40
2018-09-29T02:31:56.377Z,8.23
2018-09-29T02:34:27.561Z,8.33
2018-09-29T02:36:58.852Z,8.87
2018-09-29T02:39:29.167Z,8.87
2018-09-29T02:42:01.074Z,9.20
2018-09-29T02:44:32.318Z,9.53
2018-09-29T02:47:03.062Z,9.27
2018-09-29T02:49:33.905Z,8.70
2018-09-29T02:52:04.882Z,8.97
2018-09-29T02:54:35.236Z,7.27
2018-09-29T02:57:06.376Z,10.67
2018-09-29T02:59:37.664Z,8.93
2018-09-29T03:02:08.231Z,8.30
2018-09-29T03:04:39.618Z,8.10
2018-09-29T03:07:10.123Z,7.93
2018-09-29T03:09:40.852Z,8.13
2018-09-29T03:12:12.127Z,8.17
2018-09-29T03:14:42.917Z,6.93
2018-09-29T03:17:14.248Z,7.60
2018-09-29T03:19:45.601Z,6.93
2018-09-29T03:22:16.056Z,7.17
2018-09-29T03:24:45.908Z,7.33
2018-09-29T03:27:15.953Z,6.70
2018-09-29T03:29:51.180Z,7.13
2018-09-29T03:32:21.532Z,6.87
2018-09-29T03:34:51.707Z,8.27
2018-09-29T03:37:21.988Z,7.13
2018-09-29T03:39:52.154Z,7.60
2018-09-29T03:42:22.504Z,6.93
2018-09-29T03:44:52.573Z,7.33
2018-09-29T03:47:22.597Z,6.70
2018-09-29T03:49:52.657Z,7.63
2018-09-29T03:52:22.943Z,7.50
2018-09-29T03:54:53.197Z,6.83
2018-09-29T03:57:23.286Z,7.12
2018-09-29T03:59:53.350Z,6.67
2018-09-29T04:02:23.543Z,8.08
2018-09-29T04:04:53.472Z,7.40
2018-09-29T04:07:23.732Z,6.83
2018-09-29T04:09:53.970Z,6.40
2018-09-29T04:12:24.083Z,7.20
2018-09-29T04:14:54.130Z,7.57
2018-09-29T04:17:24.350Z,6.83
2018-09-29T04:19:54.309Z,6.43
2018-09-29T04:22:24.466Z,7.03
2018-09-29T04:24:54.700Z,7.27
2018-09-29T04:27:24.913Z,7.67
2018-09-29T04:29:54.877Z,7.17
2018-09-29T04:32:25.394Z,6.73
2018-09-29T04:34:55.223Z,10.23
2018-09-29T04:37:25.072Z,8.80
2018-09-29T04:39:55.250Z,7.10
2018-09-29T04:42:25.159Z,7.13
2018-09-29T04:44:54.924Z,9.17
2018-09-29T04:47:24.745Z,8.07
2018-09-29T04:49:55.958Z,7.17
2018-09-29T04:52:26.362Z,7.30
2018-09-29T04:54:56.708Z,7.40
2018-09-29T04:57:26.985Z,18.60
2018-09-29T04:59:57.248Z,9.57
2018-09-29T05:02:27.475Z,8.17
2018-09-29T05:04:57.693Z,9.50
2018-09-29T05:07:27.811Z,9.07
2018-09-29T05:09:58.040Z,10.27
2018-09-29T05:12:28.514Z,12.00
2018-09-29T05:14:58.544Z,13.30
2018-09-29T05:17:28.716Z,12.57
2018-09-29T05:19:58.993Z,12.07
2018-09-29T05:22:29.207Z,10.90
2018-09-29T05:24:59.320Z,11.27
2018-09-29T05:27:29.471Z,11.47
2018-09-29T05:29:59.904Z,10.23
2018-09-29T05:32:30.385Z,10.87
2018-09-29T05:35:00.637Z,10.97
2018-09-29T05:37:30.998Z,10.73
2018-09-29T05:40:01.488Z,10.37
2018-09-29T05:42:32.397Z,10.00
2018-09-29T05:45:02.569Z,12.20
2018-09-29T05:47:32.897Z,11.00
2018-09-29T05:50:03.204Z,13.40
2018-09-29T05:52:34.182Z,13.03
2018-09-29T05:55:04.652Z,12.63
2018-09-29T05:57:35.156Z,13.53
2018-09-29T06:00:05.414Z,12.93
2018-09-29T06:02:35.998Z,12.33
2018-09-29T06:05:07.410Z,10.47
2018-09-29T06:07:37.635Z,10.70
2018-09-29T06:10:08.277Z,14.47
2018-09-29T06:12:38.784Z,10.17
2018-09-29T06:15:09.019Z,11.10
2018-09-29T06:17:39.316Z,10.97
2018-09-29T06:20:09.594Z,10.97
2018-09-29T06:22:39.963Z,10.93
2018-09-29T06:25:10.063Z,11.80
2018-09-29T06:27:40.590Z,10.33
2018-09-29T06:30:11.015Z,13.13
2018-09-29T06:32:41.158Z,13.10
2018-09-29T06:35:11.705Z,14.70
2018-09-29T06:37:41.998Z,14.30
2018-09-29T06:40:13.113Z,18.73
2018-09-29T06:42:43.650Z,17.33
2018-09-29T06:45:14.162Z,16.97
2018-09-29T06:47:44.610Z,16.57
2018-09-29T06:50:14.953Z,16.07
2018-09-29T06:52:45.622Z,16.83
2018-09-29T06:55:15.910Z,16.13
2018-09-29T06:57:46.216Z,17.07
2018-09-29T07:00:16.573Z,17.37
2018-09-29T07:02:47.417Z,16.83
2018-09-29T07:05:17.932Z,17.37
2018-09-29T07:07:48.173Z,16.87
2018-09-29T07:10:18.649Z,17.93
2018-09-29T07:12:49.075Z,17.07
2018-09-29T07:15:19.340Z,17.87
2018-09-29T07:17:50.259Z,16.90
2018-09-29T07:20:20.523Z,16.40
2018-09-29T07:22:50.672Z,16.63
2018-09-29T07:25:20.750Z,18.53
2018-09-29T07:27:50.918Z,19.33
2018-09-29T07:30:21.263Z,18.47
2018-09-29T07:32:51.449Z,18.27
2018-09-29T07:35:21.746Z,17.83
2018-09-29T07:37:52.040Z,25.93
2018-09-29T07:40:22.505Z,23.00
2018-09-29T07:42:52.728Z,20.77
2018-09-29T07:45:23.094Z,18.67
2018-09-29T07:47:53.708Z,20.87
2018-09-29T07:50:24.014Z,21.47
2018-09-29T07:52:54.323Z,18.60
2018-09-29T07:55:24.881Z,17.13
2018-09-29T07:57:55.611Z,15.27
2018-09-29T08:00:26.213Z,14.10
2018-09-29T08:02:56.792Z,15.67
2018-09-29T08:05:27.285Z,14.03
2018-09-29T08:07:57.666Z,14.57
2018-09-29T08:10:28.109Z,15.63
2018-09-29T08:12:58.387Z,18.23
2018-09-29T08:15:28.952Z,16.10
2018-09-29T08:17:59.188Z,21.00
2018-09-29T08:20:29.578Z,21.00
2018-09-29T08:23:00.025Z,20.67
2018-09-29T08:25:30.281Z,20.50
2018-09-29T08:28:00.497Z,19.03
2018-09-29T08:30:30.956Z,17.60
2018-09-29T08:33:01.228Z,17.07
2018-09-29T08:35:31.773Z,16.80
2018-09-29T08:38:02.161Z,17.53
2018-09-29T08:40:32.337Z,18.47
2018-09-29T08:43:02.575Z,17.43
2018-09-29T08:45:32.841Z,17.73
2018-09-29T08:48:03.173Z,16.63
2018-09-29T08:50:33.495Z,17.80
2018-09-29T08:53:05.288Z,15.63
2018-09-29T08:55:35.919Z,16.10
2018-09-29T08:58:15.910Z,17.87
2018-09-29T09:00:49.107Z,22.43
2018-09-29T09:03:21.741Z,19.73
2018-09-29T09:05:54.499Z,21.37
2018-09-29T09:08:26.015Z,20.70
2018-09-29T09:11:03.168Z,20.67
2018-09-29T09:13:34.783Z,21.10
2018-09-29T09:16:07.331Z,18.77
2018-09-29T09:18:38.742Z,18.33
2018-09-29T09:21:10.065Z,18.67
2018-09-29T09:23:41.855Z,18.73
2018-09-29T09:26:12.146Z,18.03
2018-09-29T09:28:42.304Z,17.93
2018-09-29T09:31:12.435Z,19.47
2018-09-29T09:33:42.476Z,17.67
2018-09-29T09:36:15.919Z,17.77
2018-09-29T09:38:48.143Z,18.73
2018-09-29T09:41:20.328Z,17.63
2018-09-29T09:43:54.077Z,15.77
2018-09-29T09:46:25.121Z,17.43
2018-09-29T09:48:57.614Z,16.10
2018-09-29T09:51:27.857Z,15.83
2018-09-29T09:53:58.152Z,16.07
2018-09-29T09:56:28.251Z,17.77
2018-09-29T09:58:58.266Z,16.80
2018-09-29T10:01:35.728Z,15.87
2018-09-29T10:04:05.975Z,16.10
2018-09-29T10:06:36.096Z,15.57
2018-09-29T10:09:09.393Z,16.10
2018-09-29T10:11:39.659Z,15.50
2018-09-29T10:14:10.039Z,15.10
2018-09-29T10:16:40.338Z,16.53
2018-09-29T10:19:10.749Z,16.20
2018-09-29T10:21:40.923Z,17.37
2018-09-29T10:24:10.890Z,19.63
2018-09-29T10:26:41.252Z,18.40
2018-09-29T10:29:11.372Z,20.23
2018-09-29T10:31:41.518Z,18.23
2018-09-29T10:34:11.693Z,15.43
2018-09-29T10:36:42.047Z,13.47
2018-09-29T10:39:13.087Z,14.13
2018-09-29T10:41:43.496Z,13.87
2018-09-29T10:44:13.757Z,13.07
2018-09-29T10:46:44.142Z,13.47
2018-09-29T10:49:14.245Z,14.57
2018-09-29T10:51:44.513Z,15.03
2018-09-29T10:54:14.667Z,13.20
2018-09-29T10:56:44.828Z,13.53
2018-09-29T10:59:15.098Z,13.50
2018-09-29T11:01:45.308Z,13.90
2018-09-29T11:04:15.585Z,14.77
2018-09-29T11:06:45.733Z,14.40
2018-09-29T11:09:15.905Z,14.10
2018-09-29T11:11:46.142Z,13.87
2018-09-29T11:14:16.347Z,12.73
2018-09-29T11:16:46.427Z,12.73
2018-09-29T11:19:16.626Z,12.67
2018-09-29T11:21:47.024Z,12.87
2018-09-29T11:24:17.178Z,11.93
2018-09-29T11:26:47.119Z,13.50
2018-09-29T11:29:17.356Z,11.63
2018-09-29T11:31:47.380Z,11.23
2018-09-29T11:34:17.618Z,12.27
2018-09-29T11:36:48.213Z,11.00
2018-09-29T11:39:18.483Z,10.90
2018-09-29T11:41:48.933Z,11.17
2018-09-29T11:44:19.273Z,11.33
2018-09-29T11:46:49.637Z,11.43
2018-09-29T11:49:20.035Z,11.60
2018-09-29T11:51:50.513Z,13.07
2018-09-29T11:54:20.847Z,15.63
2018-09-29T11:56:51.541Z,14.93
2018-09-29T11:59:21.700Z,13.83
2018-09-29T12:01:53.067Z,12.67
2018-09-29T12:04:23.675Z,12.10
2018-09-29T12:06:54.431Z,11.70
2018-09-29T12:09:24.782Z,11.63
2018-09-29T12:11:55.259Z,12.53
2018-09-29T12:14:25.682Z,11.60
2018-09-29T12:16:56.049Z,10.33
2018-09-29T12:19:26.169Z,10.17
2018-09-29T12:21:56.442Z,9.33
2018-09-29T12:24:26.763Z,10.17
2018-09-29T12:26:57.126Z,9.57
2018-09-29T12:29:27.548Z,10.37
2018-09-29T12:31:58.305Z,10.17
2018-09-29T12:34:29.557Z,8.97
2018-09-29T12:37:00.256Z,11.33
2018-09-29T12:39:31.032Z,11.13
2018-09-29T12:42:01.607Z,12.07
2018-09-29T12:44:32.652Z,12.90
2018-09-29T12:47:02.970Z,13.83
2018-09-29T12:49:33.889Z,14.97
2018-09-29T12:52:04.768Z,14.43
2018-09-29T12:54:35.175Z,12.93
2018-09-29T12:57:05.906Z,13.10
2018-09-29T12:59:36.099Z,13.10
2018-09-29T13:02:06.636Z,12.23
2018-09-29T13:04:37.000Z,11.57
2018-09-29T13:07:07.369Z,11.63
2018-09-29T13:09:38.065Z,11.73
2018-09-29T13:12:08.132Z,10.50
2018-09-29T13:14:39.036Z,11.30
2018-09-29T13:17:09.318Z,10.83
2018-09-29T13:19:39.708Z,11.23
2018-09-29T13:22:10.024Z,11.67
2018-09-29T13:24:40.240Z,11.53
2018-09-29T13:27:10.770Z,11.63
2018-09-29T13:29:41.100Z,11.93
2018-09-29T13:32:11.549Z,11.93
2018-09-29T13:34:42.023Z,13.17
2018-09-29T13:37:12.757Z,13.47
2018-09-29T13:39:43.047Z,13.07
2018-09-29T13:42:13.609Z,12.80
2018-09-29T13:44:44.266Z,13.30
2018-09-29T13:47:14.607Z,12.60
2018-09-29T13:49:44.822Z,12.57
2018-09-29T13:52:15.082Z,16.07
2018-09-29T13:54:45.250Z,12.50
2018-09-29T13:57:15.579Z,12.50
2018-09-29T13:59:45.832Z,13.17
2018-09-29T14:02:15.985Z,12.27
2018-09-29T14:04:46.335Z,13.53
2018-09-29T14:07:16.581Z,12.87
2018-09-29T14:09:47.034Z,11.53
2018-09-29T14:12:17.364Z,11.67
2018-09-29T14:14:47.579Z,11.77
2018-09-29T14:17:17.797Z,11.53
2018-09-29T14:19:48.162Z,11.97
2018-09-29T14:22:18.403Z,11.33
2018-09-29T14:24:48.548Z,11.43
2018-09-29T14:27:19.705Z,10.00
2018-09-29T14:29:49.813Z,11.47
2018-09-29T14:32:20.106Z,15.00
2018-09-29T14:34:50.421Z,13.77
2018-09-29T14:37:20.839Z,12.30
2018-09-29T14:39:51.168Z,11.97
2018-09-29T14:42:21.480Z,11.33
2018-09-29T14:44:51.779Z,10.70
2018-09-29T14:47:21.926Z,10.40
2018-09-29T14:49:52.204Z,10.33
2018-09-29T14:52:22.379Z,10.33
2018-09-29T14:54:52.804Z,9.37
2018-09-29T14:57:23.065Z,9.17
2018-09-29T14:59:53.153Z,10.57
2018-09-29T15:02:23.723Z,10.37
2018-09-29T15:04:55.385Z,17.00
2018-09-29T15:07:26.202Z,11.73
2018-09-29T15:09:58.011Z,12.33
2018-09-29T15:12:28.045Z,10.00
2018-09-29T15:14:58.441Z,9.27
2018-09-29T15:17:29.334Z,8.03
2018-09-29T15:19:59.763Z,7.93
2018-09-29T15:22:30.346Z,8.10
2018-09-29T15:25:00.858Z,7.63
2018-09-29T15:27:31.208Z,8.37
2018-09-29T15:30:01.724Z,7.77
2018-09-29T15:32:32.848Z,8.17
2018-09-29T15:35:03.099Z,7.13
2018-09-29T15:37:33.497Z,6.40
2018-09-29T15:40:03.613Z,6.70
2018-09-29T15:42:34.069Z,6.60
2018-09-29T15:45:04.798Z,6.53
2018-09-29T15:47:35.312Z,6.47
2018-09-29T15:50:05.895Z,6.00
2018-09-29T15:52:36.401Z,6.07
2018-09-29T15:55:06.718Z,6.37
2018-09-29T15:57:36.994Z,5.97
2018-09-29T16:00:07.326Z,6.40
2018-09-29T16:02:37.587Z,6.33
2018-09-29T16:05:07.992Z,6.37
2018-09-29T16:07:38.313Z,6.17
2018-09-29T16:10:08.580Z,6.63
2018-09-29T16:12:38.830Z,6.23
2018-09-29T16:15:09.073Z,6.63
2018-09-29T16:17:39.196Z,6.43
2018-09-29T16:20:09.484Z,6.20
2018-09-29T16:22:39.687Z,7.10
2018-09-29T16:25:09.935Z,7.67
2018-09-29T16:27:40.354Z,6.90
2018-09-29T16:30:10.437Z,8.10
2018-09-29T16:32:40.624Z,6.83
2018-09-29T16:35:10.695Z,7.33
2018-09-29T16:37:40.853Z,7.57
2018-09-29T16:40:11.064Z,7.90
2018-09-29T16:42:41.358Z,9.03
2018-09-29T16:45:11.617Z,10.07
2018-09-29T16:47:42.358Z,12.30
2018-09-29T16:50:13.433Z,12.97
2018-09-29T16:52:43.862Z,12.53
2018-09-29T16:55:14.246Z,12.03
2018-09-29T16:57:45.533Z,12.80
2018-09-29T17:00:16.221Z,10.87
2018-09-29T17:02:46.537Z,12.10
2018-09-29T17:05:16.979Z,12.73
2018-09-29T17:07:47.540Z,13.67
2018-09-29T17:10:17.616Z,15.10
2018-09-29T17:12:48.088Z,26.07
2018-09-29T17:15:18.418Z,20.00
2018-09-29T17:17:48.707Z,16.40
2018-09-29T17:20:18.945Z,17.17
2018-09-29T17:22:49.348Z,16.87
2018-09-29T17:25:19.702Z,18.53
2018-09-29T17:27:50.028Z,17.93
2018-09-29T17:30:20.385Z,19.97
2018-09-29T17:32:50.804Z,17.63
2018-09-29T17:35:21.004Z,15.33
2018-09-29T17:37:51.508Z,16.20
2018-09-29T17:40:21.836Z,22.90
2018-09-29T17:42:52.297Z,15.30
2018-09-29T17:45:22.674Z,13.77
2018-09-29T17:47:53.106Z,13.43
2018-09-29T17:50:23.277Z,11.93
2018-09-29T17:52:53.637Z,12.27
2018-09-29T17:55:23.822Z,12.27
2018-09-29T17:57:54.243Z,11.63
2018-09-29T18:00:24.529Z,12.67
2018-09-29T18:02:55.058Z,13.10
2018-09-29T18:05:25.549Z,12.33
2018-09-29T18:07:55.688Z,13.87
2018-09-29T18:10:26.069Z,13.40
2018-09-29T18:12:56.757Z,13.97
2018-09-29T18:15:27.721Z,13.30
2018-09-29T18:17:59.285Z,13.63
2018-09-29T18:20:30.751Z,12.97
2018-09-29T18:23:02.338Z,13.63
2018-09-29T18:25:34.597Z,15.47
2018-09-29T18:28:07.487Z,20.93
2018-09-29T18:30:39.129Z,16.97
2018-09-29T18:33:11.689Z,20.03
2018-09-29T18:35:43.479Z,17.67
2018-09-29T18:38:16.288Z,18.00
2018-09-29T18:40:48.123Z,17.33
2018-09-29T18:43:20.847Z,14.70
2018-09-29T18:45:52.745Z,14.60
2018-09-29T18:48:25.079Z,15.70
2018-09-29T18:50:57.267Z,16.43
2018-09-29T18:53:29.868Z,16.47
2018-09-29T18:56:02.545Z,16.03
2018-09-29T18:58:35.881Z,17.17
2018-09-29T19:01:09.649Z,17.77
2018-09-29T19:03:42.696Z,18.40
2018-09-29T19:06:21.104Z,18.10
2018-09-29T19:08:56.502Z,17.90
2018-09-29T19:11:29.730Z,18.27
2018-09-29T19:14:02.713Z,18.70
2018-09-29T19:16:35.082Z,17.10
2018-09-29T19:19:05.499Z,17.00
2018-09-29T19:21:35.834Z,18.27
2018-09-29T19:24:08.037Z,17.00
2018-09-29T19:26:40.506Z,19.70
2018-09-29T19:29:13.411Z,19.13
2018-09-29T19:31:45.766Z,20.30
2018-09-29T19:34:18.236Z,19.77
2018-09-29T19:36:50.186Z,21.07
2018-09-29T19:39:22.460Z,20.93
2018-09-29T19:41:54.659Z,21.93
2018-09-29T19:44:26.441Z,20.60
2018-09-29T19:46:58.059Z,20.43
2018-09-29T19:49:29.481Z,20.23
2018-09-29T19:52:01.321Z,21.20
2018-09-29T19:54:33.838Z,20.10
2018-09-29T19:57:05.628Z,19.90
2018-09-29T19:59:37.920Z,20.63
2018-09-29T20:02:09.716Z,19.83
2018-09-29T20:04:41.835Z,21.23
2018-09-29T20:07:13.723Z,20.47
2018-09-29T20:09:45.149Z,21.27
2018-09-29T20:12:16.304Z,19.50
2018-09-29T20:14:47.635Z,19.13
2018-09-29T20:17:19.333Z,19.73
2018-09-29T20:19:49.590Z,18.47
2018-09-29T20:22:20.960Z,17.97
2018-09-29T20:24:52.046Z,17.53
2018-09-29T20:27:23.888Z,17.30
2018-09-29T20:29:55.203Z,18.13
2018-09-29T20:32:26.375Z,18.23
2018-09-29T20:34:57.669Z,17.53
2018-09-29T20:37:28.778Z,15.20
2018-09-29T20:39:59.982Z,15.10
2018-09-29T20:42:31.828Z,14.40
2018-09-29T20:45:04.631Z,15.10
2018-09-29T20:47:37.205Z,14.43
2018-09-29T20:50:08.921Z,14.43
2018-09-29T20:52:40.667Z,14.73
2018-09-29T20:55:12.613Z,13.93
2018-09-29T20:57:44.594Z,14.70
2018-09-29T21:00:15.323Z,14.13
2018-09-29T21:02:47.146Z,14.03
2018-09-29T21:05:18.573Z,13.33
2018-09-29T21:07:49.894Z,15.83
2018-09-29T21:10:20.934Z,13.50
2018-09-29T21:12:52.713Z,13.37
2018-09-29T21:15:23.886Z,13.47
2018-09-29T21:17:55.499Z,14.20
2018-09-29T21:20:26.716Z,13.53
2018-09-29T21:22:58.015Z,14.47
2018-09-29T21:25:29.225Z,13.87
2018-09-29T21:28:00.347Z,14.47
2018-09-29T21:30:31.780Z,14.27
2018-09-29T21:33:02.847Z,14.13
2018-09-29T21:35:34.536Z,14.33
2018-09-29T21:38:05.809Z,14.17
2018-09-29T21:40:37.280Z,15.17
2018-09-29T21:43:08.293Z,14.70
2018-09-29T21:45:39.195Z,13.97
2018-09-29T21:48:09.989Z,15.30
2018-09-29T21:50:41.206Z,15.73
2018-09-29T21:53:12.957Z,14.43
2018-09-29T21:55:44.206Z,14.40
2018-09-29T21:58:16.475Z,15.33
2018-09-29T22:00:47.927Z,15.57
2018-09-29T22:03:19.392Z,15.87
2018-09-29T22:05:50.408Z,16.17
2018-09-29T22:08:21.876Z,16.43
2018-09-29T22:10:53.646Z,15.83
2018-09-29T22:13:24.720Z,14.97
2018-09-29T22:15:55.899Z,16.07
2018-09-29T22:18:27.701Z,16.47
2018-09-29T22:20:59.550Z,16.27
2018-09-29T22:23:31.248Z,15.60
2018-09-29T22:26:02.979Z,16.07
2018-09-29T22:28:33.891Z,17.90
2018-09-29T22:31:04.532Z,16.50
2018-09-29T22:33:36.042Z,16.33
2018-09-29T22:36:07.189Z,16.93
2018-09-29T22:38:38.250Z,16.87
2018-09-29T22:41:09.281Z,15.53
2018-09-29T22:43:40.626Z,14.90
2018-09-29T22:46:11.824Z,15.43
2018-09-29T22:48:43.367Z,16.03
2018-09-29T22:51:14.582Z,15.57
2018-09-29T22:53:45.159Z,15.47
2018-09-29T22:56:16.324Z,15.47
2018-09-29T22:58:47.526Z,15.40
2018-09-29T23:01:18.745Z,15.77
2018-09-29T23:03:49.861Z,15.57
2018-09-29T23:06:21.553Z,15.30
2018-09-29T23:08:53.329Z,15.80
2018-09-29T23:11:25.036Z,15.80
2018-09-29T23:13:55.325Z,14.60
2018-09-29T23:16:26.483Z,14.87
2018-09-29T23:18:58.036Z,14.90
2018-09-29T23:21:29.535Z,14.23
2018-09-29T23:24:00.799Z,14.57
2018-09-29T23:26:32.238Z,14.40
2018-09-29T23:29:03.671Z,14.03
2018-09-29T23:31:35.449Z,14.13
2018-09-29T23:34:06.728Z,15.47
2018-09-29T23:36:38.111Z,13.40
2018-09-29T23:39:10.758Z,14.07
2018-09-29T23:41:42.578Z,14.27
2018-09-29T23:44:13.199Z,14.00
2018-09-29T23:46:44.516Z,14.53
2018-09-29T23:49:16.109Z,14.47
2018-09-29T23:51:47.487Z,14.13
2018-09-29T23:54:18.982Z,14.80
2018-09-29T23:56:50.030Z,14.93
2018-09-29T23:59:20.964Z,14.60
